sensor_id;sensor_type;location;lat;lon;timestamp;pressure;altitude;pressure_sealevel;temperature;humidity
47636;BME280;33364;50.766;15.338;2023-08-01T00:00:51;94266.78;;;14.53;88.08
47636;BME280;33364;50.766;15.338;2023-08-01T00:03:26;94260.41;;;14.46;88.59
47636;BME280;33364;50.766;15.338;2023-08-01T00:05:52;94262.28;;;14.45;88.64
47636;BME280;33364;50.766;15.338;2023-08-01T00:08:20;94262.63;;;14.44;88.90
47636;BME280;33364;50.766;15.338;2023-08-01T00:10:46;94258.84;;;14.45;88.49
47636;BME280;33364;50.766;15.338;2023-08-01T00:13:12;94251.81;;;14.49;88.37
47636;BME280;33364;50.766;15.338;2023-08-01T00:15:38;94246.50;;;14.49;88.27
47636;BME280;33364;50.766;15.338;2023-08-01T00:18:04;94243.84;;;14.49;88.69
47636;BME280;33364;50.766;15.338;2023-08-01T00:20:30;94231.66;;;14.48;88.67
47636;BME280;33364;50.766;15.338;2023-08-01T00:22:55;94227.13;;;14.48;88.95
47636;BME280;33364;50.766;15.338;2023-08-01T00:25:22;94228.53;;;14.46;89.17
47636;BME280;33364;50.766;15.338;2023-08-01T00:27:47;94227.44;;;14.47;88.75
47636;BME280;33364;50.766;15.338;2023-08-01T00:30:13;94222.59;;;14.49;88.96
47636;BME280;33364;50.766;15.338;2023-08-01T00:32:39;94224.78;;;14.47;89.37
47636;BME280;33364;50.766;15.338;2023-08-01T00:35:05;94225.00;;;14.42;89.43
47636;BME280;33364;50.766;15.338;2023-08-01T00:37:31;94219.69;;;14.42;89.74
47636;BME280;33364;50.766;15.338;2023-08-01T00:39:57;94212.13;;;14.44;89.28
47636;BME280;33364;50.766;15.338;2023-08-01T00:42:22;94219.00;;;14.45;88.75
47636;BME280;33364;50.766;15.338;2023-08-01T00:44:48;94215.47;;;14.41;89.53
47636;BME280;33364;50.766;15.338;2023-08-01T00:47:15;94220.47;;;14.42;89.78
47636;BME280;33364;50.766;15.338;2023-08-01T00:49:41;94219.22;;;14.40;90.06
47636;BME280;33364;50.766;15.338;2023-08-01T00:52:08;94215.00;;;14.38;90.05
47636;BME280;33364;50.766;15.338;2023-08-01T00:54:35;94213.97;;;14.31;90.52
47636;BME280;33364;50.766;15.338;2023-08-01T00:57:05;94208.34;;;14.32;90.42
47636;BME280;33364;50.766;15.338;2023-08-01T00:59:32;94200.09;;;14.25;90.99
47636;BME280;33364;50.766;15.338;2023-08-01T01:01:58;94195.78;;;14.21;91.38
47636;BME280;33364;50.766;15.338;2023-08-01T01:04:26;94186.63;;;14.30;91.19
47636;BME280;33364;50.766;15.338;2023-08-01T01:07:18;94182.50;;;14.21;91.51
47636;BME280;33364;50.766;15.338;2023-08-01T01:09:45;94181.72;;;14.20;91.53
47636;BME280;33364;50.766;15.338;2023-08-01T01:12:10;94184.63;;;14.27;91.19
47636;BME280;33364;50.766;15.338;2023-08-01T01:14:36;94174.38;;;14.17;91.33
47636;BME280;33364;50.766;15.338;2023-08-01T01:17:02;94172.19;;;14.19;91.02
47636;BME280;33364;50.766;15.338;2023-08-01T01:19:28;94165.28;;;14.27;90.18
47636;BME280;33364;50.766;15.338;2023-08-01T01:21:53;94160.72;;;14.27;90.13
47636;BME280;33364;50.766;15.338;2023-08-01T01:24:21;94159.59;;;14.28;89.89
47636;BME280;33364;50.766;15.338;2023-08-01T01:26:48;94163.72;;;14.26;90.45
47636;BME280;33364;50.766;15.338;2023-08-01T01:29:15;94157.38;;;14.18;91.03
47636;BME280;33364;50.766;15.338;2023-08-01T01:31:41;94146.09;;;14.21;91.44
47636;BME280;33364;50.766;15.338;2023-08-01T01:34:07;94146.63;;;14.15;91.64
47636;BME280;33364;50.766;15.338;2023-08-01T01:36:33;94130.59;;;14.11;91.31
47636;BME280;33364;50.766;15.338;2023-08-01T01:39:00;94126.16;;;14.15;90.85
47636;BME280;33364;50.766;15.338;2023-08-01T01:41:25;94127.72;;;14.16;90.81
47636;BME280;33364;50.766;15.338;2023-08-01T01:43:51;94123.19;;;14.17;90.98
47636;BME280;33364;50.766;15.338;2023-08-01T01:46:17;94125.19;;;14.20;90.89
47636;BME280;33364;50.766;15.338;2023-08-01T01:48:43;94120.84;;;14.15;91.66
47636;BME280;33364;50.766;15.338;2023-08-01T01:51:09;94106.47;;;14.16;91.70
47636;BME280;33364;50.766;15.338;2023-08-01T01:53:35;94105.69;;;14.16;91.45
47636;BME280;33364;50.766;15.338;2023-08-01T01:56:01;94108.22;;;14.12;91.51
47636;BME280;33364;50.766;15.338;2023-08-01T01:58:27;94097.50;;;14.09;92.09
47636;BME280;33364;50.766;15.338;2023-08-01T02:00:52;94101.03;;;14.13;91.38
47636;BME280;33364;50.766;15.338;2023-08-01T02:03:18;94097.28;;;14.14;91.48
47636;BME280;33364;50.766;15.338;2023-08-01T02:05:44;94094.63;;;14.14;90.99
47636;BME280;33364;50.766;15.338;2023-08-01T02:08:10;94086.13;;;14.20;90.58
47636;BME280;33364;50.766;15.338;2023-08-01T02:10:36;94073.50;;;14.17;90.67
47636;BME280;33364;50.766;15.338;2023-08-01T02:13:02;94079.94;;;14.16;91.37
47636;BME280;33364;50.766;15.338;2023-08-01T02:15:28;94084.78;;;14.14;91.47
47636;BME280;33364;50.766;15.338;2023-08-01T02:17:55;94071.72;;;14.09;91.72
47636;BME280;33364;50.766;15.338;2023-08-01T02:20:20;94062.44;;;14.15;91.41
47636;BME280;33364;50.766;15.338;2023-08-01T02:22:46;94056.81;;;14.17;90.75
47636;BME280;33364;50.766;15.338;2023-08-01T02:25:12;94052.25;;;14.17;90.98
47636;BME280;33364;50.766;15.338;2023-08-01T02:27:38;94056.69;;;14.13;91.15
47636;BME280;33364;50.766;15.338;2023-08-01T02:30:04;94057.00;;;14.12;91.27
47636;BME280;33364;50.766;15.338;2023-08-01T02:32:31;94059.47;;;14.17;91.06
47636;BME280;33364;50.766;15.338;2023-08-01T02:34:56;94058.69;;;14.16;90.74
47636;BME280;33364;50.766;15.338;2023-08-01T02:37:22;94048.06;;;14.16;91.19
47636;BME280;33364;50.766;15.338;2023-08-01T02:39:48;94052.47;;;14.12;91.70
47636;BME280;33364;50.766;15.338;2023-08-01T02:42:14;94046.50;;;14.15;91.24
47636;BME280;33364;50.766;15.338;2023-08-01T02:44:39;94047.94;;;14.13;91.38
47636;BME280;33364;50.766;15.338;2023-08-01T02:47:05;94049.81;;;14.12;91.58
47636;BME280;33364;50.766;15.338;2023-08-01T02:49:32;94041.19;;;14.15;91.17
47636;BME280;33364;50.766;15.338;2023-08-01T02:51:58;94042.75;;;14.16;91.42
47636;BME280;33364;50.766;15.338;2023-08-01T02:54:24;94041.84;;;14.12;91.68
47636;BME280;33364;50.766;15.338;2023-08-01T02:56:50;94033.88;;;14.12;91.84
47636;BME280;33364;50.766;15.338;2023-08-01T02:59:16;94030.34;;;14.08;92.00
47636;BME280;33364;50.766;15.338;2023-08-01T03:01:44;94029.34;;;14.13;92.14
47636;BME280;33364;50.766;15.338;2023-08-01T03:04:09;94031.22;;;14.12;92.01
47636;BME280;33364;50.766;15.338;2023-08-01T03:06:38;94022.63;;;14.15;91.20
47636;BME280;33364;50.766;15.338;2023-08-01T03:09:03;94027.94;;;14.15;91.61
47636;BME280;33364;50.766;15.338;2023-08-01T03:11:35;94021.28;;;14.09;91.87
47636;BME280;33364;50.766;15.338;2023-08-01T03:14:01;94019.72;;;14.08;91.82
47636;BME280;33364;50.766;15.338;2023-08-01T03:16:27;94005.25;;;14.06;92.26
47636;BME280;33364;50.766;15.338;2023-08-01T03:18:53;94006.19;;;14.01;91.80
47636;BME280;33364;50.766;15.338;2023-08-01T03:21:19;93996.03;;;14.03;91.41
47636;BME280;33364;50.766;15.338;2023-08-01T03:23:45;94001.25;;;14.00;92.17
47636;BME280;33364;50.766;15.338;2023-08-01T03:26:11;93988.09;;;14.03;92.20
47636;BME280;33364;50.766;15.338;2023-08-01T03:28:36;93993.06;;;14.05;92.19
47636;BME280;33364;50.766;15.338;2023-08-01T03:31:02;93998.25;;;14.01;92.04
47636;BME280;33364;50.766;15.338;2023-08-01T03:33:28;93991.41;;;14.00;92.41
47636;BME280;33364;50.766;15.338;2023-08-01T03:35:54;93992.19;;;14.01;92.48
47636;BME280;33364;50.766;15.338;2023-08-01T03:38:20;93978.47;;;13.99;92.14
47636;BME280;33364;50.766;15.338;2023-08-01T03:40:46;93983.75;;;13.99;92.31
47636;BME280;33364;50.766;15.338;2023-08-01T03:43:12;93984.88;;;13.98;92.42
47636;BME280;33364;50.766;15.338;2023-08-01T03:45:38;93979.78;;;13.92;92.29
47636;BME280;33364;50.766;15.338;2023-08-01T03:48:04;93985.63;;;13.98;92.04
47636;BME280;33364;50.766;15.338;2023-08-01T03:50:30;93980.66;;;13.96;92.46
47636;BME280;33364;50.766;15.338;2023-08-01T03:52:56;93989.63;;;14.04;92.61
47636;BME280;33364;50.766;15.338;2023-08-01T03:55:22;93978.47;;;13.99;92.28
47636;BME280;33364;50.766;15.338;2023-08-01T03:57:47;93978.47;;;13.99;92.42
47636;BME280;33364;50.766;15.338;2023-08-01T04:00:13;93971.59;;;13.98;92.63
47636;BME280;33364;50.766;15.338;2023-08-01T04:02:42;93970.72;;;13.93;92.84
47636;BME280;33364;50.766;15.338;2023-08-01T04:05:08;93962.53;;;13.99;92.73
47636;BME280;33364;50.766;15.338;2023-08-01T04:07:36;93969.41;;;14.00;92.55
47636;BME280;33364;50.766;15.338;2023-08-01T04:10:02;93971.28;;;13.99;93.09
47636;BME280;33364;50.766;15.338;2023-08-01T04:12:29;93959.78;;;13.95;93.22
47636;BME280;33364;50.766;15.338;2023-08-01T04:14:55;93956.34;;;13.94;93.16
47636;BME280;33364;50.766;15.338;2023-08-01T04:17:21;93956.44;;;13.98;93.02
47636;BME280;33364;50.766;15.338;2023-08-01T04:19:46;93950.03;;;13.99;92.71
47636;BME280;33364;50.766;15.338;2023-08-01T04:22:12;93963.63;;;13.98;92.86
47636;BME280;33364;50.766;15.338;2023-08-01T04:24:38;93954.00;;;13.93;93.20
47636;BME280;33364;50.766;15.338;2023-08-01T04:27:04;93952.13;;;13.93;93.71
47636;BME280;33364;50.766;15.338;2023-08-01T04:29:30;93945.38;;;13.96;93.38
47636;BME280;33364;50.766;15.338;2023-08-01T04:31:56;93946.50;;;13.95;93.27
47636;BME280;33364;50.766;15.338;2023-08-01T04:34:22;93944.06;;;13.90;93.69
47636;BME280;33364;50.766;15.338;2023-08-01T04:36:48;93936.53;;;13.92;93.69
47636;BME280;33364;50.766;15.338;2023-08-01T04:39:14;93947.59;;;13.94;93.62
47636;BME280;33364;50.766;15.338;2023-08-01T04:41:40;93925.91;;;13.92;93.43
47636;BME280;33364;50.766;15.338;2023-08-01T04:44:05;93927.13;;;14.07;93.44
47636;BME280;33364;50.766;15.338;2023-08-01T04:46:32;93920.63;;;14.04;93.22
47636;BME280;33364;50.766;15.338;2023-08-01T04:48:58;93924.38;;;14.03;93.39
47636;BME280;33364;50.766;15.338;2023-08-01T04:51:25;93924.81;;;14.05;93.10
47636;BME280;33364;50.766;15.338;2023-08-01T04:53:51;93922.16;;;14.05;93.17
47636;BME280;33364;50.766;15.338;2023-08-01T04:56:17;93929.47;;;14.08;93.18
47636;BME280;33364;50.766;15.338;2023-08-01T04:58:42;93920.63;;;14.04;93.45
47636;BME280;33364;50.766;15.338;2023-08-01T05:01:08;93910.00;;;14.04;93.61
47636;BME280;33364;50.766;15.338;2023-08-01T05:03:34;93900.38;;;14.00;93.80
47636;BME280;33364;50.766;15.338;2023-08-01T05:06:00;93898.03;;;13.98;93.62
47636;BME280;33364;50.766;15.338;2023-08-01T05:08:26;93906.00;;;13.98;93.65
47636;BME280;33364;50.766;15.338;2023-08-01T05:10:52;93911.88;;;14.04;93.69
47636;BME280;33364;50.766;15.338;2023-08-01T05:13:18;93897.81;;;14.03;93.01
47636;BME280;33364;50.766;15.338;2023-08-01T05:15:45;93900.47;;;14.03;92.75
47636;BME280;33364;50.766;15.338;2023-08-01T05:18:13;93890.19;;;14.02;93.43
47636;BME280;33364;50.766;15.338;2023-08-01T05:20:39;93881.56;;;14.05;93.45
47636;BME280;33364;50.766;15.338;2023-08-01T05:23:05;93885.00;;;14.05;93.50
47636;BME280;33364;50.766;15.338;2023-08-01T05:25:31;93877.47;;;14.07;93.17
47636;BME280;33364;50.766;15.338;2023-08-01T05:27:57;93883.91;;;14.06;93.42
47636;BME280;33364;50.766;15.338;2023-08-01T05:30:24;93863.41;;;14.07;93.56
47636;BME280;33364;50.766;15.338;2023-08-01T05:32:50;93883.22;;;14.09;93.35
47636;BME280;33364;50.766;15.338;2023-08-01T05:35:17;93867.31;;;14.09;93.40
47636;BME280;33364;50.766;15.338;2023-08-01T05:37:43;93871.94;;;14.12;93.58
47636;BME280;33364;50.766;15.338;2023-08-01T05:40:09;93872.84;;;14.16;93.44
47636;BME280;33364;50.766;15.338;2023-08-01T05:42:35;93875.16;;;14.06;93.34
47636;BME280;33364;50.766;15.338;2023-08-01T05:45:01;93865.09;;;14.11;93.31
47636;BME280;33364;50.766;15.338;2023-08-01T05:47:27;93861.66;;;14.11;93.78
47636;BME280;33364;50.766;15.338;2023-08-01T05:49:52;93862.00;;;14.09;93.81
47636;BME280;33364;50.766;15.338;2023-08-01T05:52:18;93859.34;;;14.09;93.94
47636;BME280;33364;50.766;15.338;2023-08-01T05:54:44;93848.25;;;14.07;93.76
47636;BME280;33364;50.766;15.338;2023-08-01T05:57:10;93851.28;;;14.06;94.07
47636;BME280;33364;50.766;15.338;2023-08-01T05:59:36;93852.69;;;14.03;94.20
47636;BME280;33364;50.766;15.338;2023-08-01T06:02:02;93849.41;;;14.06;93.97
47636;BME280;33364;50.766;15.338;2023-08-01T06:04:28;93847.63;;;14.10;93.34
47636;BME280;33364;50.766;15.338;2023-08-01T06:06:54;93841.63;;;14.13;93.56
47636;BME280;33364;50.766;15.338;2023-08-01T06:09:20;93837.09;;;14.14;93.86
47636;BME280;33364;50.766;15.338;2023-08-01T06:11:46;93835.66;;;14.16;93.50
47636;BME280;33364;50.766;15.338;2023-08-01T06:14:11;93838.31;;;14.16;93.44
47636;BME280;33364;50.766;15.338;2023-08-01T06:16:37;93844.50;;;14.20;93.63
47636;BME280;33364;50.766;15.338;2023-08-01T06:19:03;93837.63;;;14.19;93.61
47636;BME280;33364;50.766;15.338;2023-08-01T06:21:29;93835.66;;;14.16;93.68
47636;BME280;33364;50.766;15.338;2023-08-01T06:23:55;93835.31;;;14.18;93.87
47636;BME280;33364;50.766;15.338;2023-08-01T06:26:21;93828.47;;;14.17;93.67
47636;BME280;33364;50.766;15.338;2023-08-01T06:28:46;93834.31;;;14.22;93.54
47636;BME280;33364;50.766;15.338;2023-08-01T06:31:12;93825.91;;;14.20;93.44
47636;BME280;33364;50.766;15.338;2023-08-01T06:33:38;93822.16;;;14.21;93.48
47636;BME280;33364;50.766;15.338;2023-08-01T06:36:05;93817.28;;;14.23;93.37
47636;BME280;33364;50.766;15.338;2023-08-01T06:38:31;93817.28;;;14.23;93.63
47636;BME280;33364;50.766;15.338;2023-08-01T06:40:56;93817.03;;;14.28;93.62
47636;BME280;33364;50.766;15.338;2023-08-01T06:43:22;93820.81;;;14.27;93.42
47636;BME280;33364;50.766;15.338;2023-08-01T06:45:50;93810.41;;;14.22;93.60
47636;BME280;33364;50.766;15.338;2023-08-01T06:48:16;93803.81;;;14.16;93.84
47636;BME280;33364;50.766;15.338;2023-08-01T06:50:42;93807.88;;;14.14;94.01
47636;BME280;33364;50.766;15.338;2023-08-01T06:53:07;93785.88;;;14.13;93.95
47636;BME280;33364;50.766;15.338;2023-08-01T06:55:34;93795.06;;;14.16;93.86
47636;BME280;33364;50.766;15.338;2023-08-01T06:58:00;93797.72;;;14.16;93.85
47636;BME280;33364;50.766;15.338;2023-08-01T07:00:26;93789.31;;;14.14;93.76
47636;BME280;33364;50.766;15.338;2023-08-01T07:02:51;93794.72;;;14.17;93.46
47636;BME280;33364;50.766;15.338;2023-08-01T07:05:18;93786.97;;;14.12;93.65
47636;BME280;33364;50.766;15.338;2023-08-01T07:07:43;93787.09;;;14.16;93.71
47636;BME280;33364;50.766;15.338;2023-08-01T07:10:10;93790.00;;;14.11;94.35
47636;BME280;33364;50.766;15.338;2023-08-01T07:12:36;93782.34;;;14.09;94.20
47636;BME280;33364;50.766;15.338;2023-08-01T07:15:02;93784.78;;;14.14;93.98
47636;BME280;33364;50.766;15.338;2023-08-01T07:17:27;93782.13;;;14.14;94.05
47636;BME280;33364;50.766;15.338;2023-08-01T07:19:53;93780.16;;;14.11;94.41
47636;BME280;33364;50.766;15.338;2023-08-01T07:22:20;93782.31;;;14.21;94.36
47636;BME280;33364;50.766;15.338;2023-08-01T07:24:46;93779.31;;;14.23;94.29
47636;BME280;33364;50.766;15.338;2023-08-01T07:27:11;93769.47;;;14.23;94.40
47636;BME280;33364;50.766;15.338;2023-08-01T07:29:37;93763.28;;;14.19;94.28
47636;BME280;33364;50.766;15.338;2023-08-01T07:32:04;93762.19;;;14.20;94.24
47636;BME280;33364;50.766;15.338;2023-08-01T07:34:30;93766.03;;;14.23;94.25
47636;BME280;33364;50.766;15.338;2023-08-01T07:36:56;93766.72;;;14.20;93.90
47636;BME280;33364;50.766;15.338;2023-08-01T07:39:21;93773.03;;;14.27;93.76
47636;BME280;33364;50.766;15.338;2023-08-01T07:41:47;93766.03;;;14.23;93.44
47636;BME280;33364;50.766;15.338;2023-08-01T07:44:13;93766.81;;;14.23;93.86
47636;BME280;33364;50.766;15.338;2023-08-01T07:46:39;93767.25;;;14.25;93.70
47636;BME280;33364;50.766;15.338;2023-08-01T07:49:05;93763.50;;;14.26;93.99
47636;BME280;33364;50.766;15.338;2023-08-01T07:51:30;93757.75;;;14.24;93.76
47636;BME280;33364;50.766;15.338;2023-08-01T07:53:57;93761.72;;;14.30;93.64
47636;BME280;33364;50.766;15.338;2023-08-01T07:56:22;93745.50;;;14.20;93.92
47636;BME280;33364;50.766;15.338;2023-08-01T07:58:48;93761.72;;;14.30;94.24
47636;BME280;33364;50.766;15.338;2023-08-01T08:01:14;93745.44;;;14.32;93.97
47636;BME280;33364;50.766;15.338;2023-08-01T08:03:40;93745.09;;;14.33;93.78
47636;BME280;33364;50.766;15.338;2023-08-01T08:06:05;93735.50;;;14.29;94.04
47636;BME280;33364;50.766;15.338;2023-08-01T08:08:31;93730.84;;;14.38;93.61
47636;BME280;33364;50.766;15.338;2023-08-01T08:10:59;93744.13;;;14.38;93.69
47636;BME280;33364;50.766;15.338;2023-08-01T08:13:27;93720.78;;;14.31;93.40
47636;BME280;33364;50.766;15.338;2023-08-01T08:15:55;93739.16;;;14.36;93.65
47636;BME280;33364;50.766;15.338;2023-08-01T08:18:22;93733.69;;;14.33;93.80
47636;BME280;33364;50.766;15.338;2023-08-01T08:20:48;93732.25;;;14.35;93.79
47636;BME280;33364;50.766;15.338;2023-08-01T08:23:14;93727.44;;;14.38;93.75
47636;BME280;33364;50.766;15.338;2023-08-01T08:25:41;93729.59;;;14.35;94.19
47636;BME280;33364;50.766;15.338;2023-08-01T08:28:08;93735.03;;;14.39;94.08
47636;BME280;33364;50.766;15.338;2023-08-01T08:30:35;93728.69;;;14.44;93.97
47636;BME280;33364;50.766;15.338;2023-08-01T08:33:04;93727.34;;;14.50;93.56
47636;BME280;33364;50.766;15.338;2023-08-01T08:35:35;93729.00;;;14.54;93.39
47636;BME280;33364;50.766;15.338;2023-08-01T08:38:03;93716.94;;;14.57;93.32
47636;BME280;33364;50.766;15.338;2023-08-01T08:40:32;93726.44;;;14.58;93.41
47636;BME280;33364;50.766;15.338;2023-08-01T08:43:02;93726.00;;;14.56;93.72
47636;BME280;33364;50.766;15.338;2023-08-01T08:45:34;93727.09;;;14.55;93.38
47636;BME280;33364;50.766;15.338;2023-08-01T08:48:07;93728.66;;;14.56;93.47
47636;BME280;33364;50.766;15.338;2023-08-01T08:50:35;93726.00;;;14.56;93.57
47636;BME280;33364;50.766;15.338;2023-08-01T08:53:01;93733.72;;;14.61;93.50
47636;BME280;33364;50.766;15.338;2023-08-01T08:55:28;93726.19;;;14.63;93.15
47636;BME280;33364;50.766;15.338;2023-08-01T08:57:55;93722.44;;;14.64;93.13
47636;BME280;33364;50.766;15.338;2023-08-01T09:00:21;93726.59;;;14.65;93.23
47636;BME280;33364;50.766;15.338;2023-08-01T09:02:47;93733.38;;;14.62;93.50
47636;BME280;33364;50.766;15.338;2023-08-01T09:05:13;93724.06;;;14.68;94.03
47636;BME280;33364;50.766;15.338;2023-08-01T09:07:42;93733.06;;;14.64;93.88
47636;BME280;33364;50.766;15.338;2023-08-01T09:10:08;93731.84;;;14.61;94.02
47636;BME280;33364;50.766;15.338;2023-08-01T09:12:34;93718.13;;;14.59;93.79
47636;BME280;33364;50.766;15.338;2023-08-01T09:15:01;93726.84;;;14.60;93.21
47636;BME280;33364;50.766;15.338;2023-08-01T09:17:27;93718.88;;;14.60;93.34
47636;BME280;33364;50.766;15.338;2023-08-01T09:20:03;93720.97;;;14.66;93.43
47636;BME280;33364;50.766;15.338;2023-08-01T09:22:43;93728.66;;;14.56;94.38
47636;BME280;33364;50.766;15.338;2023-08-01T09:25:10;93734.59;;;14.65;94.62
47636;BME280;33364;50.766;15.338;2023-08-01T09:27:36;93723.69;;;14.70;94.19
47636;BME280;33364;50.766;15.338;2023-08-01T09:30:09;93718.91;;;14.75;93.90
47636;BME280;33364;50.766;15.338;2023-08-01T09:32:37;93716.78;;;14.81;93.84
47636;BME280;33364;50.766;15.338;2023-08-01T09:35:06;93716.78;;;14.81;93.98
47636;BME280;33364;50.766;15.338;2023-08-01T09:37:40;93706.06;;;14.77;93.56
47636;BME280;33364;50.766;15.338;2023-08-01T09:40:08;93699.97;;;14.77;93.75
47636;BME280;33364;50.766;15.338;2023-08-01T09:42:41;93699.97;;;14.77;93.70
47636;BME280;33364;50.766;15.338;2023-08-01T09:45:14;93703.06;;;14.79;93.72
47636;BME280;33364;50.766;15.338;2023-08-01T09:47:43;93700.94;;;14.85;94.11
47636;BME280;33364;50.766;15.338;2023-08-01T09:50:10;93710.03;;;14.84;94.14
47636;BME280;33364;50.766;15.338;2023-08-01T09:52:37;93711.41;;;14.93;93.41
47636;BME280;33364;50.766;15.338;2023-08-01T09:55:03;93709.50;;;14.94;92.83
47636;BME280;33364;50.766;15.338;2023-08-01T09:57:30;93701.09;;;14.92;92.98
47636;BME280;33364;50.766;15.338;2023-08-01T09:59:58;93708.75;;;14.93;92.27
47636;BME280;33364;50.766;15.338;2023-08-01T10:02:26;93702.75;;;14.96;92.96
47636;BME280;33364;50.766;15.338;2023-08-01T10:04:58;93703.88;;;14.95;92.81
47636;BME280;33364;50.766;15.338;2023-08-01T10:07:28;93701.19;;;14.95;91.87
47636;BME280;33364;50.766;15.338;2023-08-01T10:09:58;93692.34;;;15.07;91.78
47636;BME280;33364;50.766;15.338;2023-08-01T10:12:26;93698.09;;;15.09;92.17
47636;BME280;33364;50.766;15.338;2023-08-01T10:14:53;93685.16;;;15.07;92.18
47636;BME280;33364;50.766;15.338;2023-08-01T10:17:21;93702.31;;;15.10;91.99
47636;BME280;33364;50.766;15.338;2023-08-01T10:19:48;93681.22;;;15.17;91.77
47636;BME280;33364;50.766;15.338;2023-08-01T10:22:15;93673.41;;;15.08;91.23
47636;BME280;33364;50.766;15.338;2023-08-01T10:24:42;93673.13;;;15.13;91.20
47636;BME280;33364;50.766;15.338;2023-08-01T10:27:19;93697.06;;;15.13;91.08
47636;BME280;33364;50.766;15.338;2023-08-01T10:30:05;93686.84;;;15.31;90.85
47636;BME280;33364;50.766;15.338;2023-08-01T10:32:38;93681.50;;;15.47;90.01
47636;BME280;33364;50.766;15.338;2023-08-01T10:35:05;93677.50;;;15.53;90.18
47636;BME280;33364;50.766;15.338;2023-08-01T10:37:40;93670.34;;;15.57;89.72
47636;BME280;33364;50.766;15.338;2023-08-01T10:40:07;93672.97;;;15.73;90.06
47636;BME280;33364;50.766;15.338;2023-08-01T10:42:41;93666.69;;;15.81;89.92
47636;BME280;33364;50.766;15.338;2023-08-01T10:45:18;93677.41;;;15.84;88.03
47636;BME280;33364;50.766;15.338;2023-08-01T10:47:46;93672.03;;;15.81;88.14
47636;BME280;33364;50.766;15.338;2023-08-01T10:50:15;93673.75;;;15.92;86.65
47636;BME280;33364;50.766;15.338;2023-08-01T10:52:42;93674.53;;;15.93;87.13
47636;BME280;33364;50.766;15.338;2023-08-01T10:55:08;93682.88;;;15.91;87.29
47636;BME280;33364;50.766;15.338;2023-08-01T10:57:38;93676.50;;;15.96;87.71
47636;BME280;33364;50.766;15.338;2023-08-01T11:00:05;93696.59;;;15.93;88.90
47636;BME280;33364;50.766;15.338;2023-08-01T11:02:35;93692.13;;;15.97;87.77
47636;BME280;33364;50.766;15.338;2023-08-01T11:05:06;93702.75;;;15.78;87.40
47636;BME280;33364;50.766;15.338;2023-08-01T11:07:33;93697.63;;;15.70;87.77
47636;BME280;33364;50.766;15.338;2023-08-01T11:10:10;93702.59;;;15.71;87.84
47636;BME280;33364;50.766;15.338;2023-08-01T11:12:38;93696.22;;;15.76;88.31
47636;BME280;33364;50.766;15.338;2023-08-01T11:15:06;93695.47;;;15.75;88.31
47636;BME280;33364;50.766;15.338;2023-08-01T11:17:41;93695.03;;;15.73;88.15
47636;BME280;33364;50.766;15.338;2023-08-01T11:20:09;93688.31;;;15.79;87.45
47636;BME280;33364;50.766;15.338;2023-08-01T11:22:49;93683.00;;;15.98;87.22
47636;BME280;33364;50.766;15.338;2023-08-01T11:25:14;93675.75;;;15.95;86.60
47636;BME280;33364;50.766;15.338;2023-08-01T11:27:41;93674.34;;;16.01;87.31
47636;BME280;33364;50.766;15.338;2023-08-01T11:30:07;93669.28;;;16.16;87.68
47636;BME280;33364;50.766;15.338;2023-08-01T11:32:35;93659.91;;;16.22;87.08
47636;BME280;33364;50.766;15.338;2023-08-01T11:35:02;93665.63;;;16.43;87.47
47636;BME280;33364;50.766;15.338;2023-08-01T11:37:29;93657.34;;;16.48;86.09
47636;BME280;33364;50.766;15.338;2023-08-01T11:39:55;93685.38;;;16.61;86.36
47636;BME280;33364;50.766;15.338;2023-08-01T11:42:22;93683.69;;;16.53;85.90
47636;BME280;33364;50.766;15.338;2023-08-01T11:44:48;93682.88;;;16.49;85.88
47636;BME280;33364;50.766;15.338;2023-08-01T11:47:15;93677.81;;;16.63;87.06
47636;BME280;33364;50.766;15.338;2023-08-01T11:49:50;93676.41;;;16.92;87.63
47636;BME280;33364;50.766;15.338;2023-08-01T11:52:24;93679.53;;;16.98;87.55
47636;BME280;33364;50.766;15.338;2023-08-01T11:54:50;93678.25;;;16.88;86.67
47636;BME280;33364;50.766;15.338;2023-08-01T11:57:16;93674.44;;;16.89;86.84
47636;BME280;33364;50.766;15.338;2023-08-01T11:59:49;93687.72;;;16.85;86.07
47636;BME280;33364;50.766;15.338;2023-08-01T12:04:48;93703.59;;;16.78;86.58
47636;BME280;33364;50.766;15.338;2023-08-01T12:07:15;93697.31;;;16.67;85.98
47636;BME280;33364;50.766;15.338;2023-08-01T12:09:41;93692.97;;;16.40;87.90
47636;BME280;33364;50.766;15.338;2023-08-01T12:12:08;93689.22;;;16.44;88.53
47636;BME280;33364;50.766;15.338;2023-08-01T12:14:39;93699.63;;;16.30;88.59
47636;BME280;33364;50.766;15.338;2023-08-01T12:17:05;93701.94;;;16.32;88.67
47636;BME280;33364;50.766;15.338;2023-08-01T12:19:31;93703.19;;;16.19;88.70
47636;BME280;33364;50.766;15.338;2023-08-01T12:21:59;93707.28;;;16.32;88.88
47636;BME280;33364;50.766;15.338;2023-08-01T12:24:25;93702.63;;;16.29;88.45
47636;BME280;33364;50.766;15.338;2023-08-01T12:26:51;93709.16;;;16.31;88.25
47636;BME280;33364;50.766;15.338;2023-08-01T12:29:17;93712.88;;;16.27;88.32
47636;BME280;33364;50.766;15.338;2023-08-01T12:31:43;93710.13;;;16.23;87.13
47636;BME280;33364;50.766;15.338;2023-08-01T12:34:09;93716.88;;;16.36;87.72
47636;BME280;33364;50.766;15.338;2023-08-01T12:36:35;93705.00;;;16.34;86.25
47636;BME280;33364;50.766;15.338;2023-08-01T12:39:00;93698.84;;;16.30;86.39
47636;BME280;33364;50.766;15.338;2023-08-01T12:41:27;93703.34;;;16.26;85.02
47636;BME280;33364;50.766;15.338;2023-08-01T12:43:52;93705.16;;;16.41;86.44
47636;BME280;33364;50.766;15.338;2023-08-01T12:46:18;93701.59;;;16.53;84.85
47636;BME280;33364;50.766;15.338;2023-08-01T12:48:44;93716.06;;;16.55;85.01
47636;BME280;33364;50.766;15.338;2023-08-01T12:51:10;93720.47;;;16.63;85.83